createdAt,value
2023-01-14T00:01:31.852Z,46.50
2023-01-14T00:04:03.086Z,48.40
2023-01-14T00:06:33.220Z,50.70
2023-01-14T00:09:10.839Z,53.90
2023-01-14T00:11:47.919Z,46.40
2023-01-14T00:14:31.317Z,42.20
2023-01-14T00:17:00.743Z,44.30
2023-01-14T00:19:30.548Z,56.50
2023-01-14T00:21:58.404Z,66.00
2023-01-14T00:24:25.902Z,38.00
2023-01-14T00:27:01.743Z,51.60
2023-01-14T00:29:31.270Z,50.30
2023-01-14T00:32:06.996Z,49.30
2023-01-14T00:34:37.584Z,46.60
2023-01-14T00:37:05.916Z,43.90
2023-01-14T00:39:33.986Z,58.50
2023-01-14T00:42:02.455Z,54.10
2023-01-14T00:44:30.681Z,48.50
2023-01-14T00:46:58.623Z,43.00
2023-01-14T00:49:26.777Z,46.80
2023-01-14T00:51:55.079Z,44.70
2023-01-14T00:54:23.526Z,40.00
2023-01-14T00:56:51.366Z,42.70
2023-01-14T00:59:21.015Z,59.30
2023-01-14T01:01:49.548Z,50.80
2023-01-14T01:04:17.933Z,52.80
2023-01-14T01:06:46.031Z,50.20
2023-01-14T01:09:13.922Z,41.30
2023-01-14T01:11:42.002Z,51.40
2023-01-14T01:14:12.595Z,37.40
2023-01-14T01:16:40.829Z,43.80
2023-01-14T01:19:08.200Z,60.50
2023-01-14T01:21:36.430Z,47.40
2023-01-14T01:24:06.877Z,42.30
2023-01-14T01:26:36.949Z,46.40
2023-01-14T01:29:07.463Z,47.90
2023-01-14T01:31:37.727Z,46.30
2023-01-14T01:34:08.727Z,55.70
2023-01-14T01:36:36.958Z,46.30
2023-01-14T01:39:07.886Z,48.60
2023-01-14T01:41:36.852Z,46.50
2023-01-14T01:44:06.991Z,46.60
2023-01-14T01:46:41.340Z,44.60
2023-01-14T01:49:12.423Z,49.60
2023-01-14T01:52:01.627Z,45.80
2023-01-14T01:54:35.686Z,38.10
2023-01-14T01:57:03.894Z,56.90
2023-01-14T01:59:34.794Z,48.30
2023-01-14T02:02:02.560Z,43.30
2023-01-14T02:04:30.297Z,48.10
2023-01-14T02:06:58.836Z,42.30
2023-01-14T02:09:29.178Z,43.70
2023-01-14T02:15:26.950Z,44.00
2023-01-14T02:18:07.233Z,34.50
2023-01-14T02:20:46.970Z,43.70
2023-01-14T02:23:53.286Z,45.80
2023-01-14T02:26:38.531Z,43.20
2023-01-14T02:34:38.420Z,46.20
2023-01-14T02:37:15.093Z,61.60
2023-01-14T02:40:22.370Z,40.10
2023-01-14T02:43:35.421Z,34.70
2023-01-14T02:46:09.683Z,50.00
2023-01-14T02:51:04.837Z,48.50
2023-01-14T02:53:32.243Z,52.20
2023-01-14T02:56:01.626Z,40.80
2023-01-14T02:58:49.177Z,48.50
2023-01-14T03:01:46.093Z,44.40
2023-01-14T03:04:32.197Z,66.30
2023-01-14T03:07:04.815Z,58.20
2023-01-14T03:09:53.339Z,48.00
2023-01-14T03:12:21.547Z,48.60
2023-01-14T03:14:58.157Z,69.00
2023-01-14T03:17:38.162Z,48.00
2023-01-14T03:20:09.496Z,47.90
2023-01-14T03:22:40.468Z,54.60
2023-01-14T03:25:09.055Z,47.90
2023-01-14T03:27:37.064Z,56.00
2023-01-14T03:30:12.174Z,51.90
2023-01-14T03:32:44.184Z,53.10
2023-01-14T03:35:17.253Z,56.30
2023-01-14T03:37:59.025Z,60.90
2023-01-14T03:40:26.953Z,56.50
2023-01-14T03:42:57.115Z,54.30
2023-01-14T03:45:27.019Z,61.50
2023-01-14T03:47:55.288Z,61.90
2023-01-14T03:50:28.604Z,43.50
2023-01-14T03:53:24.113Z,46.50
2023-01-14T03:58:50.576Z,52.00
2023-01-14T04:01:39.888Z,50.70
2023-01-14T04:04:08.639Z,51.40
2023-01-14T04:06:36.050Z,58.60
2023-01-14T04:09:07.002Z,53.70
2023-01-14T04:11:34.654Z,64.10
2023-01-14T04:14:21.141Z,51.80
2023-01-14T04:16:49.296Z,49.00
2023-01-14T04:19:16.892Z,61.00
2023-01-14T08:16:04.162Z,56.00
2023-01-14T08:18:32.873Z,59.20
2023-01-14T08:21:02.355Z,52.30
2023-01-14T08:23:29.596Z,46.70
2023-01-14T08:26:01.973Z,50.70
2023-01-14T08:28:29.521Z,55.00
2023-01-14T08:31:06.862Z,63.90
2023-01-14T08:33:34.058Z,57.10
2023-01-14T08:36:07.410Z,49.30
2023-01-14T08:38:35.106Z,47.60
2023-01-14T08:41:10.042Z,50.90
2023-01-14T08:43:37.727Z,39.10
2023-01-14T08:46:05.492Z,32.10
2023-01-14T08:48:32.670Z,45.10
2023-01-14T08:51:04.619Z,32.60
2023-01-14T08:53:34.103Z,39.20
2023-01-14T08:56:02.119Z,35.80
2023-01-14T08:58:29.340Z,46.00
2023-01-14T09:01:00.725Z,32.80
2023-01-14T09:03:31.855Z,51.80
2023-01-14T09:05:59.158Z,37.30
2023-01-14T09:08:45.070Z,40.10
2023-01-14T09:11:33.804Z,51.10
2023-01-14T09:14:20.306Z,31.10
2023-01-14T09:17:06.661Z,38.80
2023-01-14T09:19:35.050Z,39.00
2023-01-14T09:22:02.200Z,32.80
2023-01-14T09:24:29.141Z,37.20
2023-01-14T09:26:56.078Z,40.90
2023-01-14T09:29:24.113Z,34.80
2023-01-14T09:31:51.340Z,28.50
2023-01-14T09:34:18.821Z,43.70
2023-01-14T09:36:45.713Z,39.40
2023-01-14T09:39:13.573Z,43.70
2023-01-14T09:41:58.292Z,40.60
2023-01-14T09:44:25.440Z,34.10
2023-01-14T09:46:53.045Z,34.00
2023-01-14T09:49:26.060Z,33.80
2023-01-14T09:52:00.418Z,45.30
2023-01-14T09:54:32.470Z,38.50
2023-01-14T09:57:30.568Z,39.80
2023-01-14T09:59:59.331Z,39.90
2023-01-14T10:02:49.595Z,33.50
2023-01-14T10:05:21.854Z,37.20
2023-01-14T10:07:49.007Z,37.70
2023-01-14T10:10:48.537Z,48.70
2023-01-14T10:13:37.924Z,28.10
2023-01-14T10:16:10.417Z,26.10
2023-01-14T10:19:00.554Z,30.50
2023-01-14T10:21:55.240Z,30.30
2023-01-14T10:24:22.993Z,41.00
2023-01-14T10:26:52.186Z,39.20
2023-01-14T10:29:21.803Z,33.50
2023-01-14T10:32:06.040Z,34.40
2023-01-14T10:34:37.729Z,33.30
2023-01-14T10:37:05.017Z,26.30
2023-01-14T10:39:32.276Z,24.60
2023-01-14T10:42:02.281Z,28.20
2023-01-14T10:44:37.672Z,32.90
2023-01-14T10:47:12.816Z,30.00
2023-01-14T10:49:54.769Z,28.00
2023-01-14T10:52:21.814Z,39.10
2023-01-14T10:55:08.866Z,36.60
2023-01-14T10:57:41.376Z,38.80
2023-01-14T11:00:11.950Z,34.90
2023-01-14T11:02:50.939Z,33.30
2023-01-14T11:05:37.551Z,32.50
2023-01-14T11:08:38.248Z,31.30
2023-01-14T11:11:11.046Z,27.40
2023-01-14T11:13:45.915Z,32.20
2023-01-14T11:16:31.776Z,36.90
2023-01-14T11:19:16.833Z,37.60
2023-01-14T11:21:45.759Z,32.40
2023-01-14T11:24:40.822Z,32.00
2023-01-14T11:27:40.525Z,27.70
2023-01-14T11:30:19.520Z,30.30
2023-01-14T11:32:49.724Z,30.60
2023-01-14T11:35:20.308Z,27.60
2023-01-14T11:37:51.021Z,29.90
2023-01-14T11:40:56.100Z,32.60
2023-01-14T11:46:14.378Z,26.40
2023-01-14T11:48:45.204Z,27.30
2023-01-14T11:51:19.934Z,32.90
2023-01-14T11:53:51.497Z,32.90
2023-01-14T11:56:33.341Z,28.30
2023-01-14T11:59:02.180Z,27.70
2023-01-14T12:01:34.485Z,33.00
2023-01-14T12:04:09.190Z,21.90
2023-01-14T12:06:45.903Z,33.10
2023-01-14T12:09:23.398Z,28.90
2023-01-14T12:11:57.683Z,28.50
2023-01-14T12:14:46.280Z,26.10
2023-01-14T12:17:21.204Z,23.60
2023-01-14T12:19:51.923Z,35.20
2023-01-14T12:22:28.840Z,32.70
2023-01-14T12:25:09.186Z,22.20
2023-01-14T12:27:45.339Z,32.30
2023-01-14T12:30:34.715Z,34.60
2023-01-14T12:33:06.320Z,26.90
2023-01-14T12:35:58.595Z,33.00
2023-01-14T12:38:54.365Z,41.60
2023-01-14T12:41:49.091Z,32.40
2023-01-14T12:44:57.907Z,40.40
2023-01-14T12:47:24.868Z,33.50
2023-01-14T12:49:51.866Z,31.40
2023-01-14T12:52:28.704Z,32.30
2023-01-14T12:54:55.721Z,25.80
2023-01-14T12:57:22.956Z,27.20
2023-01-14T13:00:03.526Z,29.50
2023-01-14T13:02:47.991Z,32.20
2023-01-14T13:05:38.037Z,36.80
2023-01-14T13:08:07.384Z,31.70
2023-01-14T17:49:23.928Z,45.90
2023-01-14T17:55:25.896Z,51.00
2023-01-14T17:58:07.309Z,47.40
2023-01-14T18:00:51.952Z,39.90
2023-01-14T18:06:41.701Z,58.00
2023-01-14T18:09:30.922Z,51.20
2023-01-14T18:12:45.585Z,43.90
2023-01-14T18:22:16.582Z,53.70
2023-01-14T18:34:53.850Z,47.70
2023-01-14T18:43:18.722Z,55.00
2023-01-14T18:49:34.171Z,49.20
2023-01-14T18:56:54.196Z,64.10
2023-01-14T19:06:44.468Z,52.20
2023-01-14T19:14:13.922Z,51.40
2023-01-14T19:22:44.508Z,64.30
2023-01-14T19:25:16.735Z,71.70
2023-01-14T19:27:47.020Z,57.00
2023-01-14T19:30:18.133Z,51.30
2023-01-14T19:33:20.585Z,83.00
2023-01-14T19:36:20.867Z,42.40
2023-01-14T19:39:15.784Z,52.70
2023-01-14T20:07:37.234Z,65.80
